sensor_id;sensor_type;location;lat;lon;timestamp;temperature;humidity
9699;DHT22;10089;47.876;8.346;2022-07-29T00:00:39;17.80;99.90
9699;DHT22;10089;47.876;8.346;2022-07-29T00:03:05;17.80;99.90
9699;DHT22;10089;47.876;8.346;2022-07-29T00:05:31;17.80;99.90
9699;DHT22;10089;47.876;8.346;2022-07-29T00:07:57;17.60;99.90
9699;DHT22;10089;47.876;8.346;2022-07-29T00:10:22;17.70;99.90
9699;DHT22;10089;47.876;8.346;2022-07-29T00:12:48;17.70;99.90
9699;DHT22;10089;47.876;8.346;2022-07-29T00:15:14;17.70;99.90
9699;DHT22;10089;47.876;8.346;2022-07-29T00:17:40;17.80;99.90
9699;DHT22;10089;47.876;8.346;2022-07-29T00:20:06;17.80;99.90
9699;DHT22;10089;47.876;8.346;2022-07-29T00:22:32;17.70;99.90
9699;DHT22;10089;47.876;8.346;2022-07-29T00:24:57;17.70;99.90
9699;DHT22;10089;47.876;8.346;2022-07-29T00:27:23;17.70;99.90
9699;DHT22;10089;47.876;8.346;2022-07-29T00:29:48;17.70;99.90
9699;DHT22;10089;47.876;8.346;2022-07-29T00:32:14;17.60;99.90
9699;DHT22;10089;47.876;8.346;2022-07-29T00:34:40;17.50;99.90
9699;DHT22;10089;47.876;8.346;2022-07-29T00:37:24;17.50;99.90
9699;DHT22;10089;47.876;8.346;2022-07-29T00:39:50;17.50;99.90
9699;DHT22;10089;47.876;8.346;2022-07-29T00:42:15;17.40;99.90
9699;DHT22;10089;47.876;8.346;2022-07-29T00:44:42;17.30;99.90
9699;DHT22;10089;47.876;8.346;2022-07-29T00:47:10;17.30;99.90
9699;DHT22;10089;47.876;8.346;2022-07-29T00:49:36;17.20;99.90
9699;DHT22;10089;47.876;8.346;2022-07-29T00:52:05;17.20;99.90
9699;DHT22;10089;47.876;8.346;2022-07-29T00:54:31;17.10;99.90
9699;DHT22;10089;47.876;8.346;2022-07-29T00:57:00;17.10;99.90
9699;DHT22;10089;47.876;8.346;2022-07-29T00:59:27;17.10;99.90
9699;DHT22;10089;47.876;8.346;2022-07-29T01:01:54;17.10;99.90
9699;DHT22;10089;47.876;8.346;2022-07-29T01:04:20;17.00;99.90
9699;DHT22;10089;47.876;8.346;2022-07-29T01:06:47;17.00;99.90
9699;DHT22;10089;47.876;8.346;2022-07-29T01:09:14;17.00;99.90
9699;DHT22;10089;47.876;8.346;2022-07-29T01:11:40;16.90;99.90
9699;DHT22;10089;47.876;8.346;2022-07-29T01:14:08;16.70;99.90
9699;DHT22;10089;47.876;8.346;2022-07-29T01:16:48;16.70;99.90
9699;DHT22;10089;47.876;8.346;2022-07-29T01:19:50;16.70;99.90
9699;DHT22;10089;47.876;8.346;2022-07-29T01:28:04;16.60;99.90
9699;DHT22;10089;47.876;8.346;2022-07-29T01:30:35;16.40;99.90
9699;DHT22;10089;47.876;8.346;2022-07-29T01:33:07;16.60;99.90
9699;DHT22;10089;47.876;8.346;2022-07-29T01:35:39;16.50;99.90
9699;DHT22;10089;47.876;8.346;2022-07-29T01:38:21;16.50;99.90
9699;DHT22;10089;47.876;8.346;2022-07-29T01:40:54;16.40;99.90
9699;DHT22;10089;47.876;8.346;2022-07-29T01:43:59;16.40;99.90
9699;DHT22;10089;47.876;8.346;2022-07-29T01:46:38;16.40;99.90
9699;DHT22;10089;47.876;8.346;2022-07-29T01:49:28;16.50;99.90
9699;DHT22;10089;47.876;8.346;2022-07-29T01:52:00;16.40;99.90
9699;DHT22;10089;47.876;8.346;2022-07-29T01:54:43;16.40;99.90
9699;DHT22;10089;47.876;8.346;2022-07-29T01:57:15;16.50;99.90
9699;DHT22;10089;47.876;8.346;2022-07-29T01:59:46;16.50;99.90
9699;DHT22;10089;47.876;8.346;2022-07-29T02:02:14;16.40;99.90
9699;DHT22;10089;47.876;8.346;2022-07-29T02:04:41;16.40;99.90
9699;DHT22;10089;47.876;8.346;2022-07-29T02:07:11;16.30;99.90
9699;DHT22;10089;47.876;8.346;2022-07-29T02:09:39;16.40;99.90
9699;DHT22;10089;47.876;8.346;2022-07-29T02:12:07;16.60;99.90
9699;DHT22;10089;47.876;8.346;2022-07-29T02:14:37;16.60;99.90
9699;DHT22;10089;47.876;8.346;2022-07-29T02:17:03;16.70;99.90
9699;DHT22;10089;47.876;8.346;2022-07-29T02:19:32;16.70;99.90
9699;DHT22;10089;47.876;8.346;2022-07-29T02:21:58;16.80;99.90
9699;DHT22;10089;47.876;8.346;2022-07-29T02:24:26;16.80;99.90
9699;DHT22;10089;47.876;8.346;2022-07-29T02:26:53;16.80;99.90
9699;DHT22;10089;47.876;8.346;2022-07-29T02:29:23;16.70;99.90
9699;DHT22;10089;47.876;8.346;2022-07-29T02:31:50;16.70;99.90
9699;DHT22;10089;47.876;8.346;2022-07-29T02:34:18;16.70;99.90
9699;DHT22;10089;47.876;8.346;2022-07-29T02:36:45;16.70;99.90
9699;DHT22;10089;47.876;8.346;2022-07-29T02:39:12;16.60;99.90
9699;DHT22;10089;47.876;8.346;2022-07-29T02:41:51;16.60;99.90
9699;DHT22;10089;47.876;8.346;2022-07-29T02:44:19;16.60;99.90
9699;DHT22;10089;47.876;8.346;2022-07-29T02:47:02;15.30;99.90
9699;DHT22;10089;47.876;8.346;2022-07-29T02:49:56;16.40;99.90
9699;DHT22;10089;47.876;8.346;2022-07-29T02:52:45;16.50;99.90
9699;DHT22;10089;47.876;8.346;2022-07-29T02:55:37;16.60;99.90
9699;DHT22;10089;47.876;8.346;2022-07-29T02:58:21;16.70;99.90
9699;DHT22;10089;47.876;8.346;2022-07-29T03:00:57;16.70;99.90
9699;DHT22;10089;47.876;8.346;2022-07-29T03:03:25;16.60;99.90
9699;DHT22;10089;47.876;8.346;2022-07-29T03:05:55;16.50;99.90
9699;DHT22;10089;47.876;8.346;2022-07-29T03:08:23;16.50;99.90
9699;DHT22;10089;47.876;8.346;2022-07-29T03:10:50;16.50;99.90
9699;DHT22;10089;47.876;8.346;2022-07-29T03:13:17;16.60;99.90
9699;DHT22;10089;47.876;8.346;2022-07-29T03:15:44;16.70;99.90
9699;DHT22;10089;47.876;8.346;2022-07-29T03:18:10;15.80;99.90
9699;DHT22;10089;47.876;8.346;2022-07-29T03:20:38;16.70;99.90
9699;DHT22;10089;47.876;8.346;2022-07-29T03:23:04;16.80;99.90
9699;DHT22;10089;47.876;8.346;2022-07-29T03:25:30;16.80;99.90
9699;DHT22;10089;47.876;8.346;2022-07-29T03:27:56;16.80;99.90
9699;DHT22;10089;47.876;8.346;2022-07-29T03:30:22;16.80;99.90
9699;DHT22;10089;47.876;8.346;2022-07-29T03:32:50;16.70;99.90
9699;DHT22;10089;47.876;8.346;2022-07-29T03:35:16;16.60;99.90
9699;DHT22;10089;47.876;8.346;2022-07-29T03:37:43;16.60;99.90
9699;DHT22;10089;47.876;8.346;2022-07-29T03:40:11;16.60;99.90
9699;DHT22;10089;47.876;8.346;2022-07-29T03:42:39;16.50;99.90
9699;DHT22;10089;47.876;8.346;2022-07-29T03:45:07;16.40;99.90
9699;DHT22;10089;47.876;8.346;2022-07-29T03:47:35;16.40;99.90
9699;DHT22;10089;47.876;8.346;2022-07-29T03:50:06;16.30;99.90
9699;DHT22;10089;47.876;8.346;2022-07-29T03:52:33;16.40;99.90
9699;DHT22;10089;47.876;8.346;2022-07-29T03:54:59;16.10;99.90
9699;DHT22;10089;47.876;8.346;2022-07-29T03:57:27;16.10;99.90
9699;DHT22;10089;47.876;8.346;2022-07-29T03:59:54;16.00;99.90
9699;DHT22;10089;47.876;8.346;2022-07-29T04:02:20;16.00;99.90
9699;DHT22;10089;47.876;8.346;2022-07-29T04:04:46;16.10;99.90
9699;DHT22;10089;47.876;8.346;2022-07-29T04:07:14;16.20;99.90
9699;DHT22;10089;47.876;8.346;2022-07-29T04:09:41;16.20;99.90
9699;DHT22;10089;47.876;8.346;2022-07-29T04:12:07;16.30;99.90
9699;DHT22;10089;47.876;8.346;2022-07-29T04:14:34;16.30;99.90
9699;DHT22;10089;47.876;8.346;2022-07-29T04:17:01;16.30;99.90
9699;DHT22;10089;47.876;8.346;2022-07-29T04:19:27;16.20;99.90
9699;DHT22;10089;47.876;8.346;2022-07-29T04:21:53;16.10;99.90
9699;DHT22;10089;47.876;8.346;2022-07-29T04:24:18;16.20;99.90
9699;DHT22;10089;47.876;8.346;2022-07-29T04:26:46;16.30;99.90
9699;DHT22;10089;47.876;8.346;2022-07-29T04:29:11;16.40;99.90
9699;DHT22;10089;47.876;8.346;2022-07-29T04:31:39;16.40;99.90
9699;DHT22;10089;47.876;8.346;2022-07-29T04:34:05;16.50;99.90
9699;DHT22;10089;47.876;8.346;2022-07-29T04:36:31;16.60;99.90
9699;DHT22;10089;47.876;8.346;2022-07-29T04:38:57;16.60;99.90
9699;DHT22;10089;47.876;8.346;2022-07-29T04:41:23;16.70;99.90
9699;DHT22;10089;47.876;8.346;2022-07-29T04:43:49;16.80;99.90
9699;DHT22;10089;47.876;8.346;2022-07-29T04:46:15;16.90;99.90
9699;DHT22;10089;47.876;8.346;2022-07-29T04:48:41;16.80;99.90
9699;DHT22;10089;47.876;8.346;2022-07-29T04:51:06;16.80;99.90
9699;DHT22;10089;47.876;8.346;2022-07-29T04:53:32;16.90;99.90
9699;DHT22;10089;47.876;8.346;2022-07-29T04:55:58;16.90;99.90
9699;DHT22;10089;47.876;8.346;2022-07-29T04:58:24;16.80;99.90
9699;DHT22;10089;47.876;8.346;2022-07-29T05:00:50;16.90;99.90
9699;DHT22;10089;47.876;8.346;2022-07-29T05:03:16;16.90;99.90
9699;DHT22;10089;47.876;8.346;2022-07-29T05:05:42;16.90;99.90
9699;DHT22;10089;47.876;8.346;2022-07-29T05:08:08;16.90;99.90
9699;DHT22;10089;47.876;8.346;2022-07-29T05:10:34;16.90;99.90
9699;DHT22;10089;47.876;8.346;2022-07-29T05:13:07;16.90;99.90
9699;DHT22;10089;47.876;8.346;2022-07-29T05:15:36;17.10;99.90
9699;DHT22;10089;47.876;8.346;2022-07-29T05:18:02;17.00;99.90
9699;DHT22;10089;47.876;8.346;2022-07-29T05:20:29;17.00;99.90
9699;DHT22;10089;47.876;8.346;2022-07-29T05:22:59;17.40;99.90
9699;DHT22;10089;47.876;8.346;2022-07-29T05:25:26;17.90;99.90
9699;DHT22;10089;47.876;8.346;2022-07-29T05:27:52;18.20;99.90
9699;DHT22;10089;47.876;8.346;2022-07-29T05:30:18;18.70;99.90
9699;DHT22;10089;47.876;8.346;2022-07-29T05:32:44;19.40;99.90
9699;DHT22;10089;47.876;8.346;2022-07-29T05:35:10;19.70;99.90
9699;DHT22;10089;47.876;8.346;2022-07-29T05:37:37;20.20;99.90
9699;DHT22;10089;47.876;8.346;2022-07-29T05:40:03;20.50;99.90
9699;DHT22;10089;47.876;8.346;2022-07-29T05:42:29;20.30;99.90
9699;DHT22;10089;47.876;8.346;2022-07-29T05:44:55;20.00;99.90
9699;DHT22;10089;47.876;8.346;2022-07-29T05:47:21;19.90;99.90
9699;DHT22;10089;47.876;8.346;2022-07-29T05:49:47;20.00;99.90
9699;DHT22;10089;47.876;8.346;2022-07-29T05:52:13;19.60;99.90
9699;DHT22;10089;47.876;8.346;2022-07-29T05:54:39;19.70;99.90
9699;DHT22;10089;47.876;8.346;2022-07-29T05:57:05;20.10;99.90
9699;DHT22;10089;47.876;8.346;2022-07-29T05:59:34;20.30;99.90
9699;DHT22;10089;47.876;8.346;2022-07-29T06:02:00;20.20;99.90
9699;DHT22;10089;47.876;8.346;2022-07-29T06:04:26;20.40;99.90
9699;DHT22;10089;47.876;8.346;2022-07-29T06:06:51;20.10;99.90
9699;DHT22;10089;47.876;8.346;2022-07-29T06:09:17;19.80;99.90
9699;DHT22;10089;47.876;8.346;2022-07-29T06:11:43;19.80;99.90
9699;DHT22;10089;47.876;8.346;2022-07-29T06:14:09;19.60;99.90
9699;DHT22;10089;47.876;8.346;2022-07-29T06:16:34;19.50;99.90
9699;DHT22;10089;47.876;8.346;2022-07-29T06:19:00;19.50;99.90
9699;DHT22;10089;47.876;8.346;2022-07-29T06:21:26;19.60;99.90
9699;DHT22;10089;47.876;8.346;2022-07-29T06:23:52;18.40;99.90
9699;DHT22;10089;47.876;8.346;2022-07-29T06:26:17;19.70;99.90
9699;DHT22;10089;47.876;8.346;2022-07-29T06:28:43;19.60;99.90
9699;DHT22;10089;47.876;8.346;2022-07-29T06:31:09;19.60;99.90
9699;DHT22;10089;47.876;8.346;2022-07-29T06:33:34;19.60;99.90
9699;DHT22;10089;47.876;8.346;2022-07-29T06:36:00;19.50;99.90
9699;DHT22;10089;47.876;8.346;2022-07-29T06:38:28;19.50;99.90
9699;DHT22;10089;47.876;8.346;2022-07-29T06:40:54;19.50;99.90
9699;DHT22;10089;47.876;8.346;2022-07-29T06:46:00;19.20;99.90
9699;DHT22;10089;47.876;8.346;2022-07-29T06:48:27;19.30;99.90
9699;DHT22;10089;47.876;8.346;2022-07-29T06:50:53;19.30;99.90
9699;DHT22;10089;47.876;8.346;2022-07-29T06:53:19;19.30;99.90
9699;DHT22;10089;47.876;8.346;2022-07-29T06:55:44;19.30;99.90
9699;DHT22;10089;47.876;8.346;2022-07-29T06:58:10;19.30;99.90
9699;DHT22;10089;47.876;8.346;2022-07-29T07:00:36;19.30;99.90
9699;DHT22;10089;47.876;8.346;2022-07-29T07:03:02;19.30;99.90
9699;DHT22;10089;47.876;8.346;2022-07-29T07:05:28;19.40;99.90
9699;DHT22;10089;47.876;8.346;2022-07-29T07:07:54;19.00;99.90
9699;DHT22;10089;47.876;8.346;2022-07-29T07:10:20;18.80;99.90
9699;DHT22;10089;47.876;8.346;2022-07-29T07:12:46;18.90;99.90
9699;DHT22;10089;47.876;8.346;2022-07-29T07:15:11;19.10;99.90
9699;DHT22;10089;47.876;8.346;2022-07-29T07:17:37;19.20;99.90
9699;DHT22;10089;47.876;8.346;2022-07-29T07:20:05;19.20;99.90
9699;DHT22;10089;47.876;8.346;2022-07-29T07:22:31;19.00;99.90
9699;DHT22;10089;47.876;8.346;2022-07-29T07:24:56;19.00;99.90
9699;DHT22;10089;47.876;8.346;2022-07-29T07:27:22;18.60;99.90
9699;DHT22;10089;47.876;8.346;2022-07-29T07:29:48;18.90;99.90
9699;DHT22;10089;47.876;8.346;2022-07-29T07:32:14;19.80;99.90
9699;DHT22;10089;47.876;8.346;2022-07-29T07:34:42;19.10;99.90
9699;DHT22;10089;47.876;8.346;2022-07-29T07:37:08;19.20;99.90
9699;DHT22;10089;47.876;8.346;2022-07-29T07:39:35;19.60;99.90
9699;DHT22;10089;47.876;8.346;2022-07-29T07:42:01;19.50;99.90
9699;DHT22;10089;47.876;8.346;2022-07-29T07:44:26;19.50;99.90
9699;DHT22;10089;47.876;8.346;2022-07-29T07:46:52;19.40;99.90
9699;DHT22;10089;47.876;8.346;2022-07-29T07:49:18;19.40;99.90
9699;DHT22;10089;47.876;8.346;2022-07-29T07:51:44;19.40;99.90
9699;DHT22;10089;47.876;8.346;2022-07-29T07:54:09;19.40;99.90
9699;DHT22;10089;47.876;8.346;2022-07-29T07:56:35;19.40;99.90
9699;DHT22;10089;47.876;8.346;2022-07-29T07:59:01;19.30;99.90
9699;DHT22;10089;47.876;8.346;2022-07-29T08:01:26;19.30;99.90
9699;DHT22;10089;47.876;8.346;2022-07-29T08:03:52;19.50;99.90
9699;DHT22;10089;47.876;8.346;2022-07-29T08:06:18;19.30;99.90
9699;DHT22;10089;47.876;8.346;2022-07-29T08:08:44;19.20;99.90
9699;DHT22;10089;47.876;8.346;2022-07-29T08:11:09;19.20;99.90
9699;DHT22;10089;47.876;8.346;2022-07-29T08:13:36;19.20;99.90
9699;DHT22;10089;47.876;8.346;2022-07-29T08:16:02;19.40;99.90
9699;DHT22;10089;47.876;8.346;2022-07-29T08:18:37;19.50;99.90
9699;DHT22;10089;47.876;8.346;2022-07-29T08:21:03;19.60;99.90
9699;DHT22;10089;47.876;8.346;2022-07-29T08:23:29;19.50;99.90
9699;DHT22;10089;47.876;8.346;2022-07-29T08:26:08;19.50;99.90
9699;DHT22;10089;47.876;8.346;2022-07-29T08:28:40;19.40;99.90
9699;DHT22;10089;47.876;8.346;2022-07-29T08:31:06;19.20;99.90
9699;DHT22;10089;47.876;8.346;2022-07-29T08:33:32;19.10;99.90
9699;DHT22;10089;47.876;8.346;2022-07-29T08:35:58;19.20;99.90
9699;DHT22;10089;47.876;8.346;2022-07-29T08:38:24;19.00;99.90
9699;DHT22;10089;47.876;8.346;2022-07-29T08:40:52;18.70;99.90
9699;DHT22;10089;47.876;8.346;2022-07-29T08:43:18;18.80;99.90
9699;DHT22;10089;47.876;8.346;2022-07-29T08:45:46;18.80;99.90
9699;DHT22;10089;47.876;8.346;2022-07-29T08:48:14;18.90;99.90
9699;DHT22;10089;47.876;8.346;2022-07-29T08:50:41;18.90;99.90
9699;DHT22;10089;47.876;8.346;2022-07-29T08:53:10;18.90;99.90
9699;DHT22;10089;47.876;8.346;2022-07-29T08:55:46;19.10;99.90
9699;DHT22;10089;47.876;8.346;2022-07-29T08:58:13;19.50;99.90
9699;DHT22;10089;47.876;8.346;2022-07-29T09:00:43;19.50;99.90
9699;DHT22;10089;47.876;8.346;2022-07-29T09:03:10;19.70;99.90
9699;DHT22;10089;47.876;8.346;2022-07-29T09:05:41;20.60;99.90
9699;DHT22;10089;47.876;8.346;2022-07-29T09:08:08;19.70;99.90
9699;DHT22;10089;47.876;8.346;2022-07-29T09:10:35;19.60;99.90
9699;DHT22;10089;47.876;8.346;2022-07-29T09:13:01;19.70;99.90
9699;DHT22;10089;47.876;8.346;2022-07-29T09:15:27;19.70;99.90
9699;DHT22;10089;47.876;8.346;2022-07-29T09:17:53;19.70;99.90
9699;DHT22;10089;47.876;8.346;2022-07-29T09:20:21;19.50;99.90
9699;DHT22;10089;47.876;8.346;2022-07-29T09:22:49;19.40;99.90
9699;DHT22;10089;47.876;8.346;2022-07-29T09:25:39;19.40;99.90
9699;DHT22;10089;47.876;8.346;2022-07-29T09:28:11;19.30;99.90
9699;DHT22;10089;47.876;8.346;2022-07-29T09:30:55;19.50;99.90
9699;DHT22;10089;47.876;8.346;2022-07-29T09:33:22;19.60;99.90
9699;DHT22;10089;47.876;8.346;2022-07-29T09:36:04;19.70;99.90
9699;DHT22;10089;47.876;8.346;2022-07-29T09:38:31;19.80;99.90
9699;DHT22;10089;47.876;8.346;2022-07-29T09:41:01;20.00;99.90
9699;DHT22;10089;47.876;8.346;2022-07-29T09:43:27;20.10;99.90
9699;DHT22;10089;47.876;8.346;2022-07-29T09:45:53;20.30;99.90
9699;DHT22;10089;47.876;8.346;2022-07-29T09:48:25;20.30;99.90
9699;DHT22;10089;47.876;8.346;2022-07-29T09:50:51;20.50;99.90
9699;DHT22;10089;47.876;8.346;2022-07-29T09:53:35;20.80;99.90
9699;DHT22;10089;47.876;8.346;2022-07-29T09:56:01;20.90;99.90
9699;DHT22;10089;47.876;8.346;2022-07-29T09:58:27;20.70;99.90
9699;DHT22;10089;47.876;8.346;2022-07-29T10:00:55;20.90;99.90
9699;DHT22;10089;47.876;8.346;2022-07-29T10:03:21;21.00;99.90
9699;DHT22;10089;47.876;8.346;2022-07-29T10:06:05;21.10;99.90
9699;DHT22;10089;47.876;8.346;2022-07-29T10:08:32;21.30;99.90
9699;DHT22;10089;47.876;8.346;2022-07-29T10:11:15;21.50;99.90
9699;DHT22;10089;47.876;8.346;2022-07-29T10:13:42;21.80;99.90
9699;DHT22;10089;47.876;8.346;2022-07-29T10:16:08;22.00;99.90
9699;DHT22;10089;47.876;8.346;2022-07-29T10:18:34;22.30;99.90
9699;DHT22;10089;47.876;8.346;2022-07-29T10:21:01;22.40;99.90
9699;DHT22;10089;47.876;8.346;2022-07-29T10:23:28;22.60;99.90
9699;DHT22;10089;47.876;8.346;2022-07-29T10:25:54;23.10;99.90
9699;DHT22;10089;47.876;8.346;2022-07-29T10:28:20;23.30;99.90
9699;DHT22;10089;47.876;8.346;2022-07-29T10:30:49;24.10;99.90
9699;DHT22;10089;47.876;8.346;2022-07-29T10:33:27;24.80;99.90
9699;DHT22;10089;47.876;8.346;2022-07-29T10:39:24;24.50;99.90
9699;DHT22;10089;47.876;8.346;2022-07-29T10:42:06;24.90;99.90
9699;DHT22;10089;47.876;8.346;2022-07-29T10:44:40;24.70;99.90
9699;DHT22;10089;47.876;8.346;2022-07-29T10:47:06;25.00;99.90
9699;DHT22;10089;47.876;8.346;2022-07-29T10:49:32;24.80;99.90
9699;DHT22;10089;47.876;8.346;2022-07-29T10:52:04;25.10;99.90
9699;DHT22;10089;47.876;8.346;2022-07-29T11:05:08;25.10;99.90
9699;DHT22;10089;47.876;8.346;2022-07-29T11:07:36;25.30;99.90
9699;DHT22;10089;47.876;8.346;2022-07-29T11:15:10;24.40;99.90
9699;DHT22;10089;47.876;8.346;2022-07-29T11:20:47;24.60;99.90
9699;DHT22;10089;47.876;8.346;2022-07-29T11:23:32;24.10;99.90
9699;DHT22;10089;47.876;8.346;2022-07-29T11:31:48;24.30;99.90
9699;DHT22;10089;47.876;8.346;2022-07-29T11:34:17;24.30;99.90
9699;DHT22;10089;47.876;8.346;2022-07-29T11:39:28;24.40;99.90
9699;DHT22;10089;47.876;8.346;2022-07-29T11:42:03;24.60;99.90
9699;DHT22;10089;47.876;8.346;2022-07-29T11:47:25;24.50;99.90
9699;DHT22;10089;47.876;8.346;2022-07-29T11:49:51;24.60;99.90
9699;DHT22;10089;47.876;8.346;2022-07-29T11:52:17;24.80;99.90
9699;DHT22;10089;47.876;8.346;2022-07-29T11:54:44;24.60;99.90
9699;DHT22;10089;47.876;8.346;2022-07-29T11:57:14;24.50;99.90
9699;DHT22;10089;47.876;8.346;2022-07-29T11:59:41;24.50;99.90
9699;DHT22;10089;47.876;8.346;2022-07-29T12:02:08;24.60;99.90
9699;DHT22;10089;47.876;8.346;2022-07-29T12:04:51;24.50;99.90
9699;DHT22;10089;47.876;8.346;2022-07-29T12:07:17;24.40;99.90
9699;DHT22;10089;47.876;8.346;2022-07-29T12:09:52;24.50;99.90
9699;DHT22;10089;47.876;8.346;2022-07-29T12:12:18;24.60;99.90
9699;DHT22;10089;47.876;8.346;2022-07-29T12:14:44;24.50;99.90
9699;DHT22;10089;47.876;8.346;2022-07-29T12:17:28;24.70;99.90
9699;DHT22;10089;47.876;8.346;2022-07-29T12:19:58;24.80;99.90
9699;DHT22;10089;47.876;8.346;2022-07-29T12:22:29;24.90;99.90
9699;DHT22;10089;47.876;8.346;2022-07-29T12:25:01;24.80;99.90
9699;DHT22;10089;47.876;8.346;2022-07-29T12:27:28;24.60;99.90
9699;DHT22;10089;47.876;8.346;2022-07-29T12:30:01;24.40;99.90
9699;DHT22;10089;47.876;8.346;2022-07-29T12:32:36;24.20;99.90
9699;DHT22;10089;47.876;8.346;2022-07-29T12:35:11;24.10;99.90
9699;DHT22;10089;47.876;8.346;2022-07-29T12:37:40;24.00;99.90
9699;DHT22;10089;47.876;8.346;2022-07-29T12:40:08;23.90;99.90
9699;DHT22;10089;47.876;8.346;2022-07-29T12:42:35;23.80;99.90
9699;DHT22;10089;47.876;8.346;2022-07-29T12:45:01;23.70;99.90
9699;DHT22;10089;47.876;8.346;2022-07-29T12:47:27;23.50;99.90
9699;DHT22;10089;47.876;8.346;2022-07-29T12:50:13;23.40;99.90
9699;DHT22;10089;47.876;8.346;2022-07-29T12:52:44;23.40;99.90
9699;DHT22;10089;47.876;8.346;2022-07-29T12:55:11;23.30;99.90
9699;DHT22;10089;47.876;8.346;2022-07-29T12:57:46;23.20;99.90
9699;DHT22;10089;47.876;8.346;2022-07-29T13:00:13;23.10;99.90
9699;DHT22;10089;47.876;8.346;2022-07-29T13:02:41;23.10;99.90
9699;DHT22;10089;47.876;8.346;2022-07-29T13:05:09;23.10;99.90
9699;DHT22;10089;47.876;8.346;2022-07-29T13:07:36;23.00;99.90
9699;DHT22;10089;47.876;8.346;2022-07-29T13:10:12;23.10;99.90
9699;DHT22;10089;47.876;8.346;2022-07-29T13:12:39;23.00;99.90
9699;DHT22;10089;47.876;8.346;2022-07-29T13:15:14;22.90;99.90
9699;DHT22;10089;47.876;8.346;2022-07-29T13:17:41;22.80;99.90
9699;DHT22;10089;47.876;8.346;2022-07-29T13:20:10;22.80;99.90
9699;DHT22;10089;47.876;8.346;2022-07-29T13:22:41;22.70;99.90
9699;DHT22;10089;47.876;8.346;2022-07-29T13:25:08;22.70;99.90
9699;DHT22;10089;47.876;8.346;2022-07-29T13:27:34;22.70;99.90
9699;DHT22;10089;47.876;8.346;2022-07-29T13:30:05;22.50;99.90
9699;DHT22;10089;47.876;8.346;2022-07-29T13:32:31;22.50;99.90
9699;DHT22;10089;47.876;8.346;2022-07-29T13:34:57;22.40;99.90
9699;DHT22;10089;47.876;8.346;2022-07-29T13:37:23;22.40;99.90
9699;DHT22;10089;47.876;8.346;2022-07-29T13:39:56;22.40;99.90
9699;DHT22;10089;47.876;8.346;2022-07-29T13:42:22;22.10;99.90
9699;DHT22;10089;47.876;8.346;2022-07-29T13:44:48;22.10;99.90
9699;DHT22;10089;47.876;8.346;2022-07-29T13:47:16;22.10;99.90
9699;DHT22;10089;47.876;8.346;2022-07-29T13:49:41;22.20;99.90
9699;DHT22;10089;47.876;8.346;2022-07-29T13:52:07;22.20;99.90
9699;DHT22;10089;47.876;8.346;2022-07-29T13:54:32;22.20;99.90
9699;DHT22;10089;47.876;8.346;2022-07-29T13:57:01;22.10;99.90
9699;DHT22;10089;47.876;8.346;2022-07-29T13:59:26;22.10;99.90
9699;DHT22;10089;47.876;8.346;2022-07-29T14:01:52;22.10;99.90
9699;DHT22;10089;47.876;8.346;2022-07-29T14:04:18;22.00;99.90
9699;DHT22;10089;47.876;8.346;2022-07-29T14:06:43;22.00;99.90
9699;DHT22;10089;47.876;8.346;2022-07-29T14:09:09;21.90;99.90
9699;DHT22;10089;47.876;8.346;2022-07-29T14:11:35;22.00;99.90
9699;DHT22;10089;47.876;8.346;2022-07-29T14:14:04;21.90;99.90
9699;DHT22;10089;47.876;8.346;2022-07-29T14:16:29;22.00;99.90
9699;DHT22;10089;47.876;8.346;2022-07-29T14:18:55;22.00;99.90
9699;DHT22;10089;47.876;8.346;2022-07-29T14:21:20;22.00;99.90
9699;DHT22;10089;47.876;8.346;2022-07-29T14:23:46;22.10;99.90
9699;DHT22;10089;47.876;8.346;2022-07-29T14:26:12;22.10;99.90
9699;DHT22;10089;47.876;8.346;2022-07-29T14:28:37;22.20;99.90
9699;DHT22;10089;47.876;8.346;2022-07-29T14:31:03;22.30;99.90
9699;DHT22;10089;47.876;8.346;2022-07-29T14:33:28;22.00;99.90
9699;DHT22;10089;47.876;8.346;2022-07-29T14:35:54;22.10;99.90
9699;DHT22;10089;47.876;8.346;2022-07-29T14:38:20;22.20;99.90
9699;DHT22;10089;47.876;8.346;2022-07-29T14:40:45;22.20;99.90
9699;DHT22;10089;47.876;8.346;2022-07-29T14:43:12;22.20;99.90
9699;DHT22;10089;47.876;8.346;2022-07-29T14:45:38;22.30;99.90
9699;DHT22;10089;47.876;8.346;2022-07-29T14:48:03;22.30;99.90
9699;DHT22;10089;47.876;8.346;2022-07-29T14:50:29;22.30;99.90
9699;DHT22;10089;47.876;8.346;2022-07-29T14:52:54;22.40;99.90
9699;DHT22;10089;47.876;8.346;2022-07-29T14:55:20;22.40;99.90
9699;DHT22;10089;47.876;8.346;2022-07-29T14:57:46;22.40;99.90
9699;DHT22;10089;47.876;8.346;2022-07-29T15:00:11;22.40;99.90
9699;DHT22;10089;47.876;8.346;2022-07-29T15:02:37;22.60;99.90
9699;DHT22;10089;47.876;8.346;2022-07-29T15:05:03;22.60;99.90
9699;DHT22;10089;47.876;8.346;2022-07-29T15:07:28;22.50;99.90
9699;DHT22;10089;47.876;8.346;2022-07-29T15:09:54;22.50;99.90
9699;DHT22;10089;47.876;8.346;2022-07-29T15:12:20;22.50;99.90
9699;DHT22;10089;47.876;8.346;2022-07-29T15:14:45;22.60;99.90
9699;DHT22;10089;47.876;8.346;2022-07-29T15:17:11;22.70;99.90
9699;DHT22;10089;47.876;8.346;2022-07-29T15:19:36;22.80;99.90
9699;DHT22;10089;47.876;8.346;2022-07-29T15:22:02;22.60;99.90
9699;DHT22;10089;47.876;8.346;2022-07-29T15:24:29;22.60;99.90
9699;DHT22;10089;47.876;8.346;2022-07-29T15:26:55;22.60;99.90
9699;DHT22;10089;47.876;8.346;2022-07-29T15:29:21;22.60;99.90
9699;DHT22;10089;47.876;8.346;2022-07-29T15:31:47;22.60;99.90
9699;DHT22;10089;47.876;8.346;2022-07-29T15:34:13;22.60;99.90
9699;DHT22;10089;47.876;8.346;2022-07-29T15:36:38;22.60;99.90
9699;DHT22;10089;47.876;8.346;2022-07-29T15:39:04;22.40;99.90
9699;DHT22;10089;47.876;8.346;2022-07-29T15:41:30;22.20;99.90
9699;DHT22;10089;47.876;8.346;2022-07-29T15:43:55;22.00;99.90
9699;DHT22;10089;47.876;8.346;2022-07-29T15:46:21;21.70;99.90
9699;DHT22;10089;47.876;8.346;2022-07-29T15:49:05;21.90;99.90
9699;DHT22;10089;47.876;8.346;2022-07-29T15:51:31;22.00;99.90
9699;DHT22;10089;47.876;8.346;2022-07-29T15:53:58;21.60;99.90
9699;DHT22;10089;47.876;8.346;2022-07-29T15:56:23;21.70;99.90
9699;DHT22;10089;47.876;8.346;2022-07-29T15:58:49;21.80;99.90
9699;DHT22;10089;47.876;8.346;2022-07-29T16:01:15;21.50;99.90
9699;DHT22;10089;47.876;8.346;2022-07-29T16:03:41;21.20;99.90
9699;DHT22;10089;47.876;8.346;2022-07-29T16:06:06;21.20;99.90
9699;DHT22;10089;47.876;8.346;2022-07-29T16:08:32;21.10;99.90
9699;DHT22;10089;47.876;8.346;2022-07-29T16:10:57;21.40;99.90
9699;DHT22;10089;47.876;8.346;2022-07-29T16:13:23;21.60;99.90
9699;DHT22;10089;47.876;8.346;2022-07-29T16:15:49;21.60;99.90
9699;DHT22;10089;47.876;8.346;2022-07-29T16:18:14;21.50;99.90
9699;DHT22;10089;47.876;8.346;2022-07-29T16:20:40;21.30;99.90
9699;DHT22;10089;47.876;8.346;2022-07-29T16:23:06;21.40;99.90
9699;DHT22;10089;47.876;8.346;2022-07-29T16:25:34;21.40;99.90
9699;DHT22;10089;47.876;8.346;2022-07-29T16:27:59;21.40;99.90
9699;DHT22;10089;47.876;8.346;2022-07-29T16:30:25;21.20;99.90
9699;DHT22;10089;47.876;8.346;2022-07-29T16:32:51;21.10;99.90